createdAt,value
2017-02-18T00:00:42.084Z,6.03
2017-02-18T00:01:51.417Z,6.03
2017-02-18T00:03:00.392Z,5.99
2017-02-18T00:04:09.717Z,6
2017-02-18T00:05:19.450Z,5.91
2017-02-18T00:06:28.777Z,5.86
2017-02-18T00:07:37.703Z,5.93
2017-02-18T00:08:47.019Z,5.91
2017-02-18T00:09:57.184Z,5.94
2017-02-18T00:11:07.340Z,5.86
2017-02-18T00:12:17.071Z,5.9
2017-02-18T00:13:26.393Z,5.89
2017-02-18T00:14:36.173Z,5.86
2017-02-18T00:15:45.940Z,5.78
2017-02-18T00:16:54.859Z,5.89
2017-02-18T00:18:04.188Z,5.83
2017-02-18T00:19:13.538Z,5.76
2017-02-18T00:20:22.601Z,5.79
2017-02-18T00:21:31.924Z,5.79
2017-02-18T00:22:40.834Z,5.86
2017-02-18T00:23:50.165Z,5.78
2017-02-18T00:25:00.311Z,5.81
2017-02-18T00:26:09.280Z,5.78
2017-02-18T00:27:18.607Z,5.81
2017-02-18T00:28:27.933Z,5.72
2017-02-18T00:29:36.855Z,5.79
2017-02-18T00:30:45.767Z,5.86
2017-02-18T00:31:54.844Z,5.76
2017-02-18T00:33:04.988Z,5.71
2017-02-18T00:34:14.750Z,5.75
2017-02-18T00:35:23.676Z,5.72
2017-02-18T00:36:33.009Z,5.67
2017-02-18T00:37:42.491Z,5.74
2017-02-18T00:38:51.819Z,5.67
2017-02-18T00:40:00.732Z,5.67
2017-02-18T00:41:10.069Z,5.83
2017-02-18T00:42:19.391Z,5.78
2017-02-18T00:43:28.775Z,5.81
2017-02-18T00:44:37.706Z,5.72
2017-02-18T00:45:47.447Z,5.75
2017-02-18T00:46:56.370Z,5.72
2017-02-18T00:48:05.696Z,5.67
2017-02-18T00:49:15.198Z,5.68
2017-02-18T00:50:24.596Z,5.71
2017-02-18T00:51:33.918Z,5.72
2017-02-18T00:52:43.645Z,5.76
2017-02-18T00:53:53.370Z,5.72
2017-02-18T00:55:02.910Z,5.65
2017-02-18T00:56:12.636Z,5.71
2017-02-18T00:57:21.955Z,5.72
2017-02-18T00:58:30.865Z,5.6
2017-02-18T00:59:40.178Z,5.68
2017-02-18T01:00:50.613Z,5.65
2017-02-18T01:01:59.948Z,5.64
2017-02-18T01:03:10.109Z,5.65
2017-02-18T01:04:19.026Z,5.63
2017-02-18T01:05:28.763Z,5.64
2017-02-18T01:06:38.658Z,5.63
2017-02-18T01:07:47.975Z,5.6
2017-02-18T01:08:56.900Z,5.63
2017-02-18T01:10:06.645Z,5.65
2017-02-18T01:11:15.982Z,5.64
2017-02-18T01:12:26.275Z,5.61
2017-02-18T01:13:35.205Z,5.63
2017-02-18T01:14:44.544Z,5.61
2017-02-18T01:15:53.865Z,5.63
2017-02-18T01:17:03.612Z,5.67
2017-02-18T01:18:12.628Z,5.68
2017-02-18T01:19:21.963Z,5.63
2017-02-18T01:20:31.314Z,5.6
2017-02-18T01:21:41.075Z,5.61
2017-02-18T01:22:51.214Z,5.64
2017-02-18T01:24:00.747Z,5.56
2017-02-18T01:25:09.659Z,5.56
2017-02-18T01:26:18.978Z,5.48
2017-02-18T01:27:28.713Z,5.58
2017-02-18T01:28:38.028Z,5.56
2017-02-18T01:29:48.059Z,5.57
2017-02-18T01:30:57.040Z,5.49
2017-02-18T01:32:07.174Z,5.48
2017-02-18T01:33:16.499Z,5.57
2017-02-18T01:34:25.935Z,5.48
2017-02-18T01:35:35.400Z,5.51
2017-02-18T01:36:44.740Z,5.53
2017-02-18T01:37:54.487Z,5.48
2017-02-18T01:39:04.234Z,5.45
2017-02-18T01:40:14.400Z,5.43
2017-02-18T01:41:23.713Z,5.48
2017-02-18T01:42:33.124Z,5.45
2017-02-18T01:43:42.052Z,5.43
2017-02-18T01:44:51.789Z,5.43
2017-02-18T01:46:00.703Z,5.42
2017-02-18T01:47:10.178Z,5.4
2017-02-18T01:48:19.492Z,5.46
2017-02-18T01:49:28.399Z,5.48
2017-02-18T01:50:37.319Z,5.42
2017-02-18T01:51:46.242Z,5.39
2017-02-18T01:52:56.015Z,5.4
2017-02-18T01:54:05.338Z,5.42
2017-02-18T01:55:14.659Z,5.46
2017-02-18T01:56:23.990Z,5.39
2017-02-18T01:57:32.928Z,5.4
2017-02-18T01:58:42.716Z,5.45
2017-02-18T01:59:52.049Z,5.48
2017-02-18T02:01:01.807Z,5.42
2017-02-18T02:02:11.177Z,5.36
2017-02-18T02:03:20.498Z,5.35
2017-02-18T02:04:30.528Z,5.33
2017-02-18T02:05:39.445Z,5.3
2017-02-18T02:06:48.772Z,5.3
2017-02-18T02:07:58.504Z,5.21
2017-02-18T02:09:07.834Z,5.22
2017-02-18T02:10:16.798Z,5.18
2017-02-18T02:11:26.116Z,5.24
2017-02-18T02:12:35.023Z,5.31
2017-02-18T02:13:43.944Z,5.24
2017-02-18T02:14:53.279Z,5.25
2017-02-18T02:16:03.153Z,5.24
2017-02-18T02:17:12.884Z,5.21
2017-02-18T02:18:22.222Z,5.24
2017-02-18T02:19:31.979Z,5.21
2017-02-18T02:20:41.302Z,5.21
2017-02-18T02:21:50.680Z,5.22
2017-02-18T02:22:59.996Z,5.13
2017-02-18T02:24:10.149Z,5.17
2017-02-18T02:25:20.293Z,5.2
2017-02-18T02:26:30.025Z,5.1
2017-02-18T02:27:39.954Z,5.17
2017-02-18T02:28:49.286Z,5.09
2017-02-18T02:29:58.188Z,5.15
2017-02-18T02:31:07.926Z,5.2
2017-02-18T02:32:17.251Z,5.06
2017-02-18T02:33:27.156Z,5.09
2017-02-18T02:34:37.347Z,5.12
2017-02-18T02:35:46.672Z,5.1
2017-02-18T02:36:56.002Z,5.1
2017-02-18T02:38:06.147Z,5.04
2017-02-18T02:39:15.688Z,5.03
2017-02-18T02:40:25.026Z,5.07
2017-02-18T02:41:33.935Z,5.1
2017-02-18T02:42:42.872Z,5.04
2017-02-18T02:43:52.198Z,5.04
2017-02-18T02:45:01.364Z,5.02
2017-02-18T02:46:10.695Z,5.02
2017-02-18T02:47:20.012Z,5.03
2017-02-18T02:48:29.334Z,5.04
2017-02-18T02:49:39.478Z,5.1
2017-02-18T02:50:48.417Z,4.99
2017-02-18T02:51:57.333Z,5
2017-02-18T02:53:07.480Z,5.04
2017-02-18T02:54:17.213Z,5.04
2017-02-18T02:55:27.349Z,5.03
2017-02-18T02:56:36.985Z,5.06
2017-02-18T02:57:46.315Z,5.03
2017-02-18T02:58:55.639Z,4.99
2017-02-18T03:00:04.965Z,5.12
2017-02-18T03:01:14.694Z,5
2017-02-18T03:02:24.479Z,4.99
2017-02-18T03:03:33.386Z,5.02
2017-02-18T03:04:42.709Z,4.96
2017-02-18T03:05:51.643Z,5.02
2017-02-18T03:07:00.961Z,4.99
2017-02-18T03:08:10.882Z,4.99
2017-02-18T03:09:20.612Z,4.97
2017-02-18T03:10:29.951Z,4.92
2017-02-18T03:11:39.680Z,4.91
2017-02-18T03:12:48.594Z,4.96
2017-02-18T03:13:57.921Z,4.94
2017-02-18T03:15:07.668Z,4.85
2017-02-18T03:16:16.575Z,4.94
2017-02-18T03:17:25.949Z,4.96
2017-02-18T03:18:35.278Z,4.78
2017-02-18T03:19:44.765Z,4.86
2017-02-18T03:20:54.095Z,4.73
2017-02-18T03:22:03.420Z,4.77
2017-02-18T03:23:13.223Z,4.92
2017-02-18T03:24:22.142Z,4.78
2017-02-18T03:25:31.967Z,4.82
2017-02-18T03:26:42.107Z,4.75
2017-02-18T03:27:51.047Z,4.73
2017-02-18T03:29:00.370Z,4.97
2017-02-18T03:30:09.700Z,4.85
2017-02-18T03:31:20.089Z,4.85
2017-02-18T03:32:29.827Z,4.8
2017-02-18T03:33:39.592Z,4.84
2017-02-18T03:34:48.929Z,4.85
2017-02-18T03:35:58.256Z,4.75
2017-02-18T03:37:07.194Z,4.77
2017-02-18T03:38:16.929Z,4.77
2017-02-18T03:39:25.851Z,4.77
2017-02-18T03:40:34.766Z,4.82
2017-02-18T03:41:44.492Z,4.84
2017-02-18T03:42:54.380Z,4.77
2017-02-18T03:44:03.298Z,4.86
2017-02-18T03:45:12.648Z,4.82
2017-02-18T03:46:21.975Z,4.86
2017-02-18T03:47:31.698Z,4.8
2017-02-18T03:48:41.731Z,4.8
2017-02-18T03:49:51.475Z,4.86
2017-02-18T03:51:00.809Z,4.8
2017-02-18T03:52:10.144Z,4.77
2017-02-18T03:53:20.290Z,4.8
2017-02-18T03:54:30.023Z,4.78
2017-02-18T03:55:39.349Z,4.77
2017-02-18T03:56:48.680Z,4.77
2017-02-18T03:57:58.409Z,4.69
2017-02-18T03:59:07.736Z,4.69
2017-02-18T04:00:17.729Z,4.72
2017-02-18T04:01:27.067Z,4.72
2017-02-18T04:02:37.212Z,4.78
2017-02-18T04:03:46.525Z,4.73
2017-02-18T04:04:56.670Z,4.72
2017-02-18T04:06:06.480Z,4.75
2017-02-18T04:07:15.405Z,4.73
2017-02-18T04:08:25.150Z,4.67
2017-02-18T04:09:34.873Z,4.7
2017-02-18T04:10:43.793Z,4.67
2017-02-18T04:11:53.286Z,4.7
2017-02-18T04:13:03.018Z,4.72
2017-02-18T04:14:12.801Z,4.65
2017-02-18T04:15:21.716Z,4.72
2017-02-18T04:16:31.471Z,4.72
2017-02-18T04:17:42.082Z,4.67
2017-02-18T04:18:50.988Z,4.73
2017-02-18T04:20:00.325Z,4.75
2017-02-18T04:21:09.654Z,4.66
2017-02-18T04:22:19.055Z,4.69
2017-02-18T04:23:28.723Z,4.69
2017-02-18T04:24:38.051Z,4.69
2017-02-18T04:25:47.381Z,4.63
2017-02-18T04:26:57.961Z,4.69
2017-02-18T04:28:07.695Z,4.7
2017-02-18T04:29:17.183Z,4.7
2017-02-18T04:30:26.098Z,4.7
2017-02-18T04:31:35.023Z,4.69
2017-02-18T04:32:44.770Z,4.69
2017-02-18T04:33:54.106Z,4.6
2017-02-18T04:35:03.473Z,4.66
2017-02-18T04:36:13.205Z,4.7
2017-02-18T04:37:22.932Z,4.67
2017-02-18T04:38:32.251Z,4.69
2017-02-18T04:39:41.577Z,4.69
2017-02-18T04:40:51.148Z,4.65
2017-02-18T04:42:00.462Z,4.75
2017-02-18T04:43:09.787Z,4.7
2017-02-18T04:44:19.119Z,4.77
2017-02-18T04:45:28.437Z,4.72
2017-02-18T04:46:37.966Z,4.73
2017-02-18T04:47:47.284Z,4.69
2017-02-18T04:48:57.017Z,4.72
2017-02-18T04:50:06.754Z,4.69
2017-02-18T04:51:15.665Z,4.69
2017-02-18T04:52:25.403Z,4.72
2017-02-18T04:53:34.320Z,4.72
2017-02-18T04:54:43.241Z,4.72
2017-02-18T04:55:52.633Z,4.7
2017-02-18T04:57:02.367Z,4.67
2017-02-18T04:58:11.993Z,4.66
2017-02-18T04:59:21.729Z,4.72
2017-02-18T05:00:31.086Z,4.67
2017-02-18T05:01:40.410Z,4.69
2017-02-18T05:02:49.727Z,4.62
2017-02-18T05:03:59.521Z,4.69
2017-02-18T05:05:08.437Z,4.66
2017-02-18T05:06:18.209Z,4.69
2017-02-18T05:07:27.143Z,4.66
2017-02-18T05:08:36.875Z,4.69
2017-02-18T05:09:46.267Z,4.65
2017-02-18T05:10:55.592Z,4.69
2017-02-18T05:12:04.509Z,4.66
2017-02-18T05:13:13.439Z,4.59
2017-02-18T05:14:22.769Z,4.62
2017-02-18T05:15:32.670Z,4.66
2017-02-18T05:16:41.579Z,4.63
2017-02-18T05:17:51.319Z,4.6
2017-02-18T05:19:00.639Z,4.6
2017-02-18T05:20:09.958Z,4.69
2017-02-18T05:21:19.589Z,4.66
2017-02-18T05:22:28.925Z,4.7
2017-02-18T05:23:37.838Z,4.62
2017-02-18T05:24:47.156Z,4.63
2017-02-18T05:25:56.496Z,4.65
2017-02-18T05:27:06.489Z,4.59
2017-02-18T05:28:15.822Z,4.6
2017-02-18T05:29:25.139Z,4.63
2017-02-18T05:30:34.480Z,4.59
2017-02-18T05:31:44.207Z,4.66
2017-02-18T05:32:53.681Z,4.66
2017-02-18T05:34:03.016Z,4.6
2017-02-18T05:35:11.944Z,4.62
2017-02-18T05:36:20.853Z,4.67
2017-02-18T05:37:30.193Z,4.65
2017-02-18T05:38:39.676Z,4.69
2017-02-18T05:39:49.412Z,4.59
2017-02-18T05:40:59.139Z,4.66
2017-02-18T05:42:08.936Z,4.62
2017-02-18T05:43:18.267Z,4.67
2017-02-18T05:44:27.868Z,4.69
2017-02-18T05:45:37.609Z,4.66
2017-02-18T05:46:47.354Z,4.58
2017-02-18T05:47:57.502Z,4.63
2017-02-18T05:49:07.234Z,4.6
2017-02-18T05:50:17.165Z,4.67
2017-02-18T05:51:27.320Z,4.65
2017-02-18T05:52:36.632Z,4.62
2017-02-18T05:53:47.199Z,4.58
2017-02-18T05:54:56.949Z,4.69
2017-02-18T05:56:06.292Z,4.7
2017-02-18T05:57:16.032Z,4.66
2017-02-18T05:58:24.942Z,4.65
2017-02-18T05:59:34.683Z,4.67
2017-02-18T06:00:44.408Z,4.65
2017-02-18T06:01:53.944Z,4.67
2017-02-18T06:03:03.271Z,4.67
2017-02-18T06:04:13.024Z,4.62
2017-02-18T06:05:22.357Z,4.6
2017-02-18T06:06:31.297Z,4.63
2017-02-18T06:07:41.105Z,4.6
2017-02-18T06:08:50.827Z,4.7
2017-02-18T06:10:00.144Z,4.69
2017-02-18T06:11:09.477Z,4.72
2017-02-18T06:12:19.218Z,4.7
2017-02-18T06:13:28.962Z,4.69
2017-02-18T06:14:38.705Z,4.7
2017-02-18T06:15:48.029Z,4.69
2017-02-18T06:16:57.758Z,4.67
2017-02-18T06:18:06.684Z,4.7
2017-02-18T06:19:16.201Z,4.8
2017-02-18T06:20:25.537Z,4.78
2017-02-18T06:21:34.911Z,4.73
2017-02-18T06:22:44.642Z,4.72
2017-02-18T06:23:54.004Z,4.72
2017-02-18T06:25:04.402Z,4.75
2017-02-18T06:26:14.136Z,4.73
2017-02-18T06:27:23.460Z,4.7
2017-02-18T06:28:32.781Z,4.72
2017-02-18T06:29:42.178Z,4.72
2017-02-18T06:30:51.759Z,4.8
2017-02-18T06:32:01.135Z,4.77
2017-02-18T06:33:10.506Z,4.72
2017-02-18T06:34:20.254Z,4.75
2017-02-18T06:35:29.578Z,4.73
2017-02-18T06:36:38.502Z,4.75
2017-02-18T06:37:48.651Z,4.73
2017-02-18T06:38:58.377Z,4.78
2017-02-18T06:40:08.116Z,4.77
2017-02-18T06:41:17.848Z,4.77
2017-02-18T06:42:27.329Z,4.75
2017-02-18T06:43:37.061Z,4.77
2017-02-18T06:44:46.785Z,4.78
2017-02-18T06:45:56.105Z,4.84
2017-02-18T06:47:06.672Z,4.82
2017-02-18T06:48:16.551Z,4.78
2017-02-18T06:49:25.906Z,4.8
2017-02-18T06:50:35.634Z,4.73
2017-02-18T06:51:44.978Z,4.78
2017-02-18T06:52:54.312Z,4.78
2017-02-18T06:54:03.780Z,4.84
2017-02-18T06:55:13.148Z,4.75
2017-02-18T06:56:22.494Z,4.77
2017-02-18T06:57:32.225Z,4.8
2017-02-18T06:58:41.560Z,4.82
2017-02-18T06:59:51.351Z,4.82
2017-02-18T07:01:00.668Z,4.8
2017-02-18T07:02:09.590Z,4.78
2017-02-18T07:03:19.314Z,4.77
2017-02-18T07:04:28.653Z,4.82
2017-02-18T07:05:37.986Z,4.75
2017-02-18T07:06:46.913Z,4.8
2017-02-18T07:07:56.665Z,4.86
2017-02-18T07:09:06.805Z,4.73
2017-02-18T07:10:16.530Z,4.78
2017-02-18T07:11:26.777Z,4.72
2017-02-18T07:12:36.120Z,4.82
2017-02-18T07:13:45.468Z,4.82
2017-02-18T07:14:55.217Z,4.75
2017-02-18T07:16:04.950Z,4.86
2017-02-18T07:17:15.029Z,4.82
2017-02-18T07:18:24.767Z,4.88
2017-02-18T07:19:34.108Z,4.8
2017-02-18T07:20:43.832Z,4.85
2017-02-18T07:21:52.756Z,4.82
2017-02-18T07:23:03.000Z,4.8
2017-02-18T07:24:12.333Z,4.8
2017-02-18T07:25:21.249Z,4.82
2017-02-18T07:26:30.588Z,4.82
2017-02-18T07:27:39.558Z,4.8
2017-02-18T07:28:48.951Z,4.84
2017-02-18T07:29:57.861Z,4.82
2017-02-18T07:31:07.603Z,4.78
2017-02-18T07:32:17.761Z,4.85
2017-02-18T07:33:27.093Z,4.77
2017-02-18T07:34:37.595Z,4.82
2017-02-18T07:35:46.926Z,4.88
2017-02-18T07:36:56.245Z,4.91
2017-02-18T07:38:05.988Z,4.92
2017-02-18T07:39:15.743Z,4.94
2017-02-18T07:40:24.701Z,4.97
2017-02-18T07:41:34.494Z,5.04
2017-02-18T07:42:44.224Z,4.92
2017-02-18T07:43:53.583Z,5.06
2017-02-18T07:45:02.923Z,4.94
2017-02-18T07:46:12.540Z,5.04
2017-02-18T07:47:22.281Z,4.99
2017-02-18T07:48:31.599Z,5.02
2017-02-18T07:49:41.329Z,5.03
2017-02-18T07:50:50.667Z,5.06
2017-02-18T07:51:59.630Z,5.13
2017-02-18T07:53:09.363Z,5.02
2017-02-18T07:54:19.095Z,4.97
2017-02-18T07:55:28.024Z,5.02
2017-02-18T07:56:37.770Z,4.97
2017-02-18T07:57:47.920Z,4.97
2017-02-18T07:58:57.279Z,4.97
2017-02-18T08:00:07.010Z,4.97
2017-02-18T08:01:16.736Z,4.96
2017-02-18T08:02:25.659Z,5.02
2017-02-18T08:03:35.145Z,5.02
2017-02-18T08:04:44.886Z,4.97
2017-02-18T08:05:55.048Z,5
2017-02-18T08:07:04.779Z,4.96
2017-02-18T08:08:14.101Z,5.07
2017-02-18T08:09:24.002Z,5.04
2017-02-18T08:10:33.336Z,5.02
2017-02-18T08:11:42.661Z,4.97
2017-02-18T08:12:51.977Z,4.94
2017-02-18T08:14:01.724Z,4.89
2017-02-18T08:15:12.187Z,4.96
2017-02-18T08:16:21.113Z,4.75
2017-02-18T08:17:30.060Z,4.77
2017-02-18T08:18:39.374Z,4.8
2017-02-18T08:19:49.522Z,4.77
2017-02-18T08:20:58.942Z,4.78
2017-02-18T08:22:09.086Z,4.72
2017-02-18T08:23:18.424Z,4.7
2017-02-18T08:24:27.755Z,4.72
2017-02-18T08:25:37.086Z,4.7
2017-02-18T08:26:46.341Z,4.75
2017-02-18T08:27:55.657Z,4.75
2017-02-18T08:29:05.792Z,4.73
2017-02-18T08:30:14.738Z,4.8
2017-02-18T08:31:24.041Z,4.72
2017-02-18T08:32:34.023Z,4.77
2017-02-18T08:33:42.955Z,4.72
2017-02-18T08:34:52.484Z,4.72
2017-02-18T08:36:01.946Z,4.77
2017-02-18T08:37:12.150Z,4.7
2017-02-18T08:38:21.655Z,4.84
2017-02-18T08:39:30.748Z,4.72
2017-02-18T08:40:40.079Z,4.8
2017-02-18T08:41:49.407Z,4.85
2017-02-18T08:42:58.739Z,4.82
2017-02-18T08:44:08.400Z,4.8
2017-02-18T08:45:18.685Z,4.77
2017-02-18T08:46:28.427Z,4.7
2017-02-18T08:47:38.163Z,4.72
2017-02-18T08:48:47.910Z,4.75
2017-02-18T08:49:57.568Z,4.73
2017-02-18T08:51:06.647Z,4.8
2017-02-18T08:52:15.969Z,4.8
2017-02-18T08:53:26.111Z,4.7
2017-02-18T08:54:35.036Z,4.7
2017-02-18T08:55:43.953Z,4.72
2017-02-18T08:56:53.282Z,4.7
2017-02-18T08:58:03.018Z,4.72
2017-02-18T08:59:12.343Z,4.69
2017-02-18T09:00:21.264Z,4.63
2017-02-18T09:01:30.612Z,4.63
2017-02-18T09:02:40.349Z,4.66
2017-02-18T09:03:50.498Z,4.6
2017-02-18T09:05:00.248Z,4.65
2017-02-18T09:06:09.577Z,4.55
2017-02-18T09:07:19.065Z,4.6
2017-02-18T09:08:28.393Z,4.65
2017-02-18T09:09:37.385Z,4.66
2017-02-18T09:10:47.122Z,4.72
2017-02-18T09:11:56.866Z,4.7
2017-02-18T09:13:07.006Z,4.69
2017-02-18T09:14:16.743Z,4.7
2017-02-18T09:15:25.656Z,4.69
2017-02-18T09:16:34.989Z,4.6
2017-02-18T09:17:44.334Z,4.66
2017-02-18T09:18:53.730Z,4.72
2017-02-18T09:20:03.053Z,4.6
2017-02-18T09:21:12.383Z,4.7
2017-02-18T09:22:21.699Z,4.75
2017-02-18T09:23:30.631Z,4.77
2017-02-18T09:24:40.075Z,4.72
2017-02-18T09:25:49.407Z,4.69
2017-02-18T09:26:58.762Z,4.73
2017-02-18T09:28:08.088Z,4.73
2017-02-18T09:29:17.415Z,4.73
2017-02-18T09:30:26.898Z,4.77
2017-02-18T09:31:37.030Z,4.73
2017-02-18T09:32:47.175Z,4.75
2017-02-18T09:33:57.333Z,4.8
2017-02-18T09:35:06.257Z,4.72
2017-02-18T09:36:15.729Z,4.72
2017-02-18T09:37:25.471Z,4.69
2017-02-18T09:38:35.624Z,4.85
2017-02-18T09:39:44.969Z,4.77
2017-02-18T09:40:54.295Z,4.94
2017-02-18T09:42:04.579Z,4.96
2017-02-18T09:43:13.909Z,4.94
2017-02-18T09:44:23.259Z,4.92
2017-02-18T09:45:32.190Z,4.91
2017-02-18T09:46:41.935Z,4.97
2017-02-18T09:47:51.582Z,5.02
2017-02-18T09:49:01.322Z,4.92
2017-02-18T09:50:10.234Z,5.06
2017-02-18T09:51:19.560Z,5.07
2017-02-18T09:52:28.496Z,4.97
2017-02-18T09:53:38.430Z,5.02
2017-02-18T09:54:48.181Z,4.99
2017-02-18T09:55:57.091Z,5.07
2017-02-18T09:57:06.425Z,5.04
2017-02-18T09:58:15.350Z,5.06
2017-02-18T09:59:25.274Z,5.13
2017-02-18T10:00:34.597Z,5.1
2017-02-18T10:01:44.327Z,5.13
2017-02-18T10:02:53.647Z,5.2
2017-02-18T10:04:02.979Z,5.24
2017-02-18T10:05:12.872Z,5.18
2017-02-18T10:06:21.791Z,5.18
2017-02-18T10:07:31.131Z,5.24
2017-02-18T10:08:41.282Z,5.3
2017-02-18T10:09:50.628Z,5.28
2017-02-18T10:10:59.606Z,5.33
2017-02-18T10:12:08.525Z,5.4
2017-02-18T10:13:17.842Z,5.38
2017-02-18T10:14:27.158Z,5.39
2017-02-18T10:15:36.497Z,5.46
2017-02-18T10:16:46.281Z,5.42
2017-02-18T10:17:55.600Z,5.43
2017-02-18T10:19:04.925Z,5.42
2017-02-18T10:20:15.065Z,5.42
2017-02-18T10:21:25.078Z,5.42
2017-02-18T10:22:34.836Z,5.45
2017-02-18T10:23:44.222Z,5.53
2017-02-18T10:24:53.157Z,5.67
2017-02-18T10:26:02.074Z,5.6
2017-02-18T10:27:11.831Z,5.48
2017-02-18T10:28:21.181Z,5.45
2017-02-18T10:29:30.908Z,5.56
2017-02-18T10:30:40.657Z,5.53
2017-02-18T10:31:50.006Z,5.45
2017-02-18T10:32:59.737Z,5.49
2017-02-18T10:34:09.059Z,5.53
2017-02-18T10:35:18.016Z,5.6
2017-02-18T10:36:27.345Z,5.53
2017-02-18T10:37:36.277Z,5.64
2017-02-18T10:38:45.192Z,5.65
2017-02-18T10:39:54.926Z,5.72
2017-02-18T10:41:04.674Z,5.63
2017-02-18T10:42:14.097Z,5.64
2017-02-18T10:43:23.425Z,5.78
2017-02-18T10:44:32.344Z,5.74
2017-02-18T10:45:41.291Z,5.83
2017-02-18T10:46:51.025Z,6.03
2017-02-18T10:48:00.407Z,6.01
2017-02-18T10:49:09.314Z,6.06
2017-02-18T10:50:19.046Z,6.03
2017-02-18T10:51:29.186Z,6.01
2017-02-18T10:52:38.508Z,6.01
2017-02-18T10:53:47.941Z,6.08
2017-02-18T10:54:58.086Z,6.14
2017-02-18T10:56:07.417Z,6.08
2017-02-18T10:57:17.358Z,6.12
2017-02-18T10:58:27.526Z,6.14
2017-02-18T10:59:37.722Z,6.09
2017-02-18T11:00:47.509Z,6.14
2017-02-18T11:01:58.014Z,6.12
2017-02-18T11:03:08.335Z,6.19
2017-02-18T11:04:18.470Z,6.27
2017-02-18T11:05:28.653Z,6.21
2017-02-18T11:06:39.020Z,6.25
2017-02-18T11:07:49.564Z,6.28
2017-02-18T11:08:59.757Z,6.19
2017-02-18T11:10:08.989Z,6.3
2017-02-18T11:11:18.062Z,6.31
2017-02-18T11:12:27.869Z,6.38
2017-02-18T11:13:37.858Z,6.38
2017-02-18T11:14:46.839Z,6.4
2017-02-18T11:15:56.594Z,6.37
2017-02-18T11:17:07.178Z,6.34
2017-02-18T11:18:17.248Z,6.37
2017-02-18T11:19:27.296Z,6.43
2017-02-18T11:20:38.562Z,6.36
2017-02-18T11:21:49.030Z,6.34
2017-02-18T11:22:59.811Z,6.34
2017-02-18T11:24:10.080Z,6.38
2017-02-18T11:25:21.948Z,6.41
2017-02-18T11:26:32.652Z,6.37
2017-02-18T11:27:41.676Z,6.44
2017-02-18T11:28:50.663Z,6.44
2017-02-18T11:30:01.735Z,6.46
2017-02-18T11:31:11.682Z,6.44
2017-02-18T11:32:21.051Z,6.51
2017-02-18T11:33:31.180Z,6.52
2017-02-18T11:34:40.140Z,6.52
2017-02-18T11:35:49.620Z,6.52
2017-02-18T11:36:59.845Z,6.62
2017-02-18T11:38:11.581Z,6.61
2017-02-18T11:39:21.867Z,6.64
2017-02-18T11:40:32.027Z,6.61
2017-02-18T11:41:43.222Z,6.64
2017-02-18T11:42:54.098Z,6.67
2017-02-18T11:44:03.528Z,6.64
2017-02-18T11:45:12.873Z,6.74
2017-02-18T11:46:22.843Z,6.73
2017-02-18T11:47:33.685Z,6.74
2017-02-18T11:48:44.266Z,6.7
2017-02-18T11:49:54.231Z,6.84
2017-02-18T11:51:03.205Z,6.76
2017-02-18T11:52:12.562Z,6.85
2017-02-18T11:53:23.085Z,6.84
2017-02-18T11:54:33.939Z,6.89
2017-02-18T11:55:44.034Z,6.94
2017-02-18T11:56:53.816Z,7.03
2017-02-18T11:58:03.474Z,6.99
2017-02-18T11:59:13.298Z,7.03
2017-02-18T12:00:23.007Z,7.02
2017-02-18T12:01:33.226Z,7.03
2017-02-18T12:02:43.612Z,7.05
2017-02-18T12:03:54.731Z,7.12
2017-02-18T12:05:05.335Z,7.13
2017-02-18T12:06:15.624Z,7.13
2017-02-18T12:07:25.434Z,7.12
2017-02-18T12:08:34.425Z,6.99
2017-02-18T12:09:43.348Z,6.99
2017-02-18T12:10:53.324Z,6.99
2017-02-18T12:12:04.338Z,6.95
2017-02-18T12:13:15.640Z,7.05
2017-02-18T12:14:26.204Z,7.09
2017-02-18T12:15:35.891Z,7.03
2017-02-18T12:16:45.444Z,7.13
2017-02-18T12:17:55.444Z,7.16
2017-02-18T12:19:05.336Z,7.27
2017-02-18T12:20:15.113Z,7.25
2017-02-18T12:21:24.161Z,7.13
2017-02-18T12:22:34.927Z,7.12
2017-02-18T12:23:44.673Z,7.24
2017-02-18T12:24:55.621Z,7.25
2017-02-18T12:26:05.865Z,7.2
2017-02-18T12:27:15.941Z,7.32
2017-02-18T12:28:25.832Z,7.32
2017-02-18T12:29:35.944Z,7.32
2017-02-18T12:30:46.360Z,7.31
2017-02-18T12:31:57.709Z,7.3
2017-02-18T12:33:07.599Z,7.34
2017-02-18T12:34:17.776Z,7.34
2017-02-18T12:35:27.938Z,7.27
2017-02-18T12:36:37.271Z,7.45
2017-02-18T12:37:46.205Z,7.48
2017-02-18T12:38:55.542Z,7.43
2017-02-18T12:40:06.502Z,7.46
2017-02-18T12:41:15.883Z,7.45
2017-02-18T12:42:25.616Z,7.48
2017-02-18T12:43:34.550Z,7.6
2017-02-18T12:44:44.692Z,7.55
2017-02-18T12:45:54.016Z,7.58
2017-02-18T12:47:04.474Z,7.52
2017-02-18T12:48:13.795Z,7.53
2017-02-18T12:49:22.734Z,7.61
2017-02-18T12:50:31.652Z,7.57
2017-02-18T12:51:41.011Z,7.61
2017-02-18T12:52:50.743Z,7.61
2017-02-18T12:54:00.088Z,7.72
2017-02-18T12:55:09.433Z,7.67
2017-02-18T12:56:18.771Z,7.69
2017-02-18T12:57:27.709Z,7.67
2017-02-18T12:58:37.192Z,7.69
2017-02-18T12:59:46.519Z,7.64
2017-02-18T13:00:55.443Z,7.67
2017-02-18T13:02:05.174Z,7.67
2017-02-18T13:03:14.916Z,7.74
2017-02-18T13:04:24.657Z,7.68
2017-02-18T13:05:33.990Z,7.77
2017-02-18T13:06:42.911Z,7.74
2017-02-18T13:07:52.263Z,7.83
2017-02-18T13:09:02.012Z,7.82
2017-02-18T13:10:11.295Z,7.79
2017-02-18T13:11:20.211Z,7.85
2017-02-18T13:12:29.133Z,7.82
2017-02-18T13:13:39.027Z,7.82
2017-02-18T13:14:48.376Z,7.75
2017-02-18T13:15:58.282Z,7.82
2017-02-18T13:17:07.609Z,7.79
2017-02-18T13:18:16.931Z,7.79
2017-02-18T13:19:25.875Z,7.77
2017-02-18T13:20:36.034Z,7.68
2017-02-18T13:21:45.920Z,7.64
2017-02-18T13:22:55.275Z,7.68
2017-02-18T13:24:04.619Z,7.72
2017-02-18T13:25:13.954Z,7.79
2017-02-18T13:26:23.276Z,7.8
2017-02-18T13:27:32.555Z,7.83
2017-02-18T13:28:41.494Z,7.85
2017-02-18T13:29:51.252Z,7.85
2017-02-18T13:31:00.999Z,7.87
2017-02-18T13:32:10.343Z,7.92
2017-02-18T13:33:19.454Z,7.93
2017-02-18T13:34:29.284Z,7.82
2017-02-18T13:35:39.056Z,7.87
2017-02-18T13:36:48.403Z,7.9
2017-02-18T13:37:58.154Z,7.97
2017-02-18T13:39:07.840Z,7.9
2017-02-18T13:40:17.176Z,7.93
2017-02-18T13:41:26.100Z,7.86
2017-02-18T13:42:35.851Z,8
2017-02-18T13:43:46.000Z,7.87
2017-02-18T13:44:56.317Z,7.86
2017-02-18T13:46:06.455Z,7.93
2017-02-18T13:47:16.617Z,7.95
2017-02-18T13:48:25.581Z,7.97
2017-02-18T13:49:34.926Z,7.98
2017-02-18T13:50:44.152Z,8.07
2017-02-18T13:51:53.481Z,8.05
2017-02-18T13:53:02.819Z,8.1
2017-02-18T13:54:12.572Z,8.07
2017-02-18T13:55:21.511Z,8.11
2017-02-18T13:56:30.894Z,8.15
2017-02-18T13:57:41.026Z,8.05
2017-02-18T13:58:50.763Z,8.12
2017-02-18T13:59:59.686Z,8.11
2017-02-18T14:01:09.025Z,8.08
2017-02-18T14:02:18.938Z,8.08
2017-02-18T14:03:28.685Z,8.05
2017-02-18T14:04:38.443Z,8.08
2017-02-18T14:05:47.373Z,8
2017-02-18T14:06:56.731Z,7.98
2017-02-18T14:08:06.107Z,8.1
2017-02-18T14:09:15.451Z,8.1
2017-02-18T14:10:24.772Z,8
2017-02-18T14:11:34.098Z,8.08
2017-02-18T14:12:43.011Z,7.93
2017-02-18T14:13:53.154Z,7.95
2017-02-18T14:15:02.895Z,8
2017-02-18T14:16:11.819Z,8
2017-02-18T14:17:21.166Z,7.85
2017-02-18T14:18:30.085Z,7.97
2017-02-18T14:19:39.072Z,7.97
2017-02-18T14:20:48.007Z,7.97
2017-02-18T14:21:56.945Z,7.95
2017-02-18T14:23:06.748Z,7.98
2017-02-18T14:24:15.662Z,7.93
2017-02-18T14:25:24.826Z,7.97
2017-02-18T14:26:34.864Z,7.95
2017-02-18T14:27:44.722Z,7.97
2017-02-18T14:28:55.181Z,8.04
2017-02-18T14:30:05.801Z,8.07
2017-02-18T14:31:16.361Z,8.07
2017-02-18T14:32:26.482Z,7.93
2017-02-18T14:33:35.795Z,7.93
2017-02-18T14:34:46.711Z,7.97
2017-02-18T14:35:58.453Z,7.98
2017-02-18T14:37:08.094Z,7.97
2017-02-18T14:38:17.731Z,7.97
2017-02-18T14:39:27.412Z,7.97
2017-02-18T14:40:37.142Z,7.9
2017-02-18T14:41:46.671Z,7.98
2017-02-18T14:42:56.039Z,7.9
2017-02-18T14:44:05.537Z,7.82
2017-02-18T14:45:16.842Z,7.92
2017-02-18T14:46:28.493Z,7.89
2017-02-18T14:47:40.329Z,7.83
2017-02-18T14:48:52.044Z,7.92
2017-02-18T14:50:02.927Z,7.89
2017-02-18T14:51:13.503Z,7.9
2017-02-18T14:52:23.298Z,8
2017-02-18T14:53:34.663Z,7.95
2017-02-18T14:54:44.867Z,7.93
2017-02-18T14:55:55.620Z,7.83
2017-02-18T14:57:06.230Z,7.92
2017-02-18T14:58:15.696Z,7.92
2017-02-18T14:59:27.339Z,7.95
2017-02-18T15:00:37.572Z,7.93
2017-02-18T15:01:47.148Z,7.83
2017-02-18T15:02:58.020Z,7.87
2017-02-18T15:04:08.366Z,7.9
2017-02-18T15:05:17.790Z,8.01
2017-02-18T15:06:27.854Z,7.87
2017-02-18T15:07:37.678Z,7.95
2017-02-18T15:08:47.474Z,8
2017-02-18T15:09:56.656Z,7.87
2017-02-18T15:11:07.414Z,7.86
2017-02-18T15:12:17.813Z,7.93
2017-02-18T15:13:28.440Z,7.95
2017-02-18T15:14:38.246Z,7.93
2017-02-18T15:15:47.881Z,7.85
2017-02-18T15:16:57.480Z,7.86
2017-02-18T15:18:08.183Z,7.9
2017-02-18T15:19:18.283Z,7.9
2017-02-18T15:20:28.573Z,7.87
2017-02-18T15:21:37.497Z,7.93
2017-02-18T15:22:47.244Z,7.83
2017-02-18T15:23:56.890Z,7.86
2017-02-18T15:25:06.262Z,7.92
2017-02-18T15:26:16.169Z,7.9
2017-02-18T15:27:26.463Z,7.9
2017-02-18T15:28:36.741Z,7.9
2017-02-18T15:29:46.871Z,7.86
2017-02-18T15:30:57.073Z,7.85